createdAt,value
2022-10-18T00:01:46.040Z,82.29
2022-10-18T00:04:14.386Z,82.27
2022-10-18T00:06:43.645Z,82.26
2022-10-18T00:09:13.130Z,82.28
2022-10-18T00:11:41.765Z,82.26
2022-10-18T00:14:10.150Z,82.20
2022-10-18T00:16:38.788Z,82.39
2022-10-18T00:19:07.105Z,82.24
2022-10-18T00:21:35.921Z,82.42
2022-10-18T00:24:04.906Z,82.43
2022-10-18T00:26:33.308Z,82.54
2022-10-18T00:29:05.163Z,82.63
2022-10-18T00:31:38.704Z,82.69
2022-10-18T00:34:13.833Z,82.61
2022-10-18T00:36:43.724Z,82.61
2022-10-18T00:39:17.738Z,82.58
2022-10-18T00:41:46.674Z,82.55
2022-10-18T00:44:17.954Z,82.71
2022-10-18T00:46:49.022Z,82.72
2022-10-18T00:49:37.717Z,82.83
2022-10-18T00:52:17.358Z,82.79
2022-10-18T00:54:47.478Z,82.93
2022-10-18T00:57:15.989Z,82.96
2022-10-18T01:02:45.027Z,83.32
2022-10-18T01:05:15.457Z,83.49
2022-10-18T01:07:59.964Z,83.45
2022-10-18T01:10:42.289Z,83.45
2022-10-18T01:13:36.174Z,83.70
2022-10-18T01:16:19.315Z,83.80
2022-10-18T01:19:32.024Z,83.78
2022-10-18T01:22:14.394Z,83.96
2022-10-18T01:24:54.454Z,83.88
2022-10-18T01:27:44.486Z,84.11
2022-10-18T01:30:34.255Z,84.16
2022-10-18T01:33:17.682Z,84.27
2022-10-18T01:36:03.619Z,84.43
2022-10-18T01:38:33.348Z,84.22
2022-10-18T01:41:03.970Z,84.56
2022-10-18T01:43:34.233Z,84.42
2022-10-18T01:46:04.405Z,84.73
2022-10-18T01:48:33.738Z,84.42
2022-10-18T01:51:01.878Z,84.57
2022-10-18T01:53:34.692Z,84.82
2022-10-18T01:56:32.006Z,84.74
2022-10-18T01:59:22.177Z,84.71
2022-10-18T02:01:56.045Z,84.79
2022-10-18T02:04:32.354Z,84.98
2022-10-18T02:07:42.506Z,84.73
2022-10-18T02:12:46.822Z,84.77
2022-10-18T02:15:26.378Z,85.18
2022-10-18T02:17:56.319Z,85.28
2022-10-18T02:20:29.138Z,84.90
2022-10-18T02:22:59.834Z,85.12
2022-10-18T02:25:31.607Z,85.37
2022-10-18T02:31:03.239Z,85.45
2022-10-18T02:34:00.739Z,85.61
2022-10-18T02:36:37.351Z,85.58
2022-10-18T02:39:11.509Z,85.78
2022-10-18T02:42:08.704Z,85.74
2022-10-18T02:44:37.947Z,85.74
2022-10-18T02:47:07.962Z,85.93
2022-10-18T02:49:36.139Z,86.06
2022-10-18T02:52:04.495Z,85.93
2022-10-18T02:54:33.719Z,86.09
2022-10-18T02:57:01.866Z,86.51
2022-10-18T02:59:29.999Z,86.54
2022-10-18T03:01:58.152Z,86.71
2022-10-18T03:06:54.591Z,87.08
2022-10-18T03:09:28.773Z,87.20
2022-10-18T03:11:57.646Z,87.21
2022-10-18T03:14:25.754Z,87.33
2022-10-18T03:16:53.922Z,87.76
2022-10-18T03:19:22.064Z,87.51
2022-10-18T03:21:50.222Z,87.64
2022-10-18T03:24:18.371Z,87.56
2022-10-18T03:26:46.695Z,87.81
2022-10-18T03:29:14.802Z,87.93
2022-10-18T03:31:48.219Z,87.91
2022-10-18T03:34:17.910Z,87.66
2022-10-18T03:36:46.059Z,88.22
2022-10-18T03:39:18.182Z,87.81
2022-10-18T03:41:46.409Z,87.84
2022-10-18T03:44:14.547Z,88.21
2022-10-18T03:46:42.632Z,88.40
2022-10-18T03:49:36.426Z,87.99
2022-10-18T03:52:04.570Z,88.06
2022-10-18T03:54:32.742Z,88.18
2022-10-18T03:57:05.402Z,88.32
2022-10-18T03:59:59.248Z,88.53
2022-10-18T04:02:27.392Z,88.46
2022-10-18T04:05:20.557Z,88.81
2022-10-18T04:07:48.699Z,88.74
2022-10-18T04:10:16.909Z,88.74
2022-10-18T04:13:10.429Z,88.53
2022-10-18T04:15:38.826Z,88.70
2022-10-18T04:18:32.026Z,88.99
2022-10-18T04:21:25.338Z,89.26
2022-10-18T04:23:53.516Z,89.50
2022-10-18T04:26:21.937Z,89.65
2022-10-18T04:29:15.224Z,89.77
2022-10-18T04:31:49.004Z,89.71
2022-10-18T04:34:17.276Z,89.86
2022-10-18T04:37:10.849Z,89.99
2022-10-18T04:39:39.090Z,90.16
2022-10-18T04:42:32.365Z,90.24
2022-10-18T04:45:00.492Z,90.37
2022-10-18T04:47:54.169Z,90.49
2022-10-18T04:50:22.432Z,90.56
2022-10-18T04:53:17.900Z,90.32
2022-10-18T04:55:51.261Z,90.26
2022-10-18T04:58:19.371Z,90.50
2022-10-18T05:00:48.013Z,90.67
2022-10-18T05:03:16.648Z,90.71
2022-10-18T05:06:11.092Z,90.87
2022-10-18T05:08:39.336Z,90.89
2022-10-18T05:11:07.458Z,91.07
2022-10-18T05:14:01.381Z,91.05
2022-10-18T05:16:29.554Z,91.15
2022-10-18T05:18:57.765Z,91.29
2022-10-18T05:21:25.931Z,91.45
2022-10-18T05:23:57.058Z,91.27
2022-10-18T05:26:25.232Z,91.52
2022-10-18T05:28:53.528Z,91.63
2022-10-18T05:31:21.867Z,91.57
2022-10-18T05:33:57.247Z,91.92
2022-10-18T05:36:26.459Z,92.11
2022-10-18T05:38:56.299Z,91.94
2022-10-18T05:41:25.105Z,92.26
2022-10-18T05:43:53.421Z,92.35
2022-10-18T05:46:21.560Z,92.05
2022-10-18T05:49:16.228Z,92.27
2022-10-18T05:51:44.315Z,92.21
2022-10-18T05:54:37.263Z,92.23
2022-10-18T05:57:05.457Z,92.59
2022-10-18T05:59:33.596Z,92.62
2022-10-18T06:02:01.772Z,92.57
2022-10-18T06:04:29.957Z,92.43
2022-10-18T06:06:58.087Z,92.74
2022-10-18T06:09:30.823Z,92.33
2022-10-18T06:11:58.968Z,92.73
2022-10-18T06:14:27.044Z,92.45
2022-10-18T06:16:56.893Z,92.47
2022-10-18T06:19:50.127Z,92.19
2022-10-18T06:22:18.214Z,92.39
2022-10-18T06:25:11.636Z,92.24
2022-10-18T06:27:39.953Z,92.43
2022-10-18T06:30:08.942Z,92.20
2022-10-18T06:32:37.046Z,92.24
2022-10-18T06:35:30.053Z,92.10
2022-10-18T06:37:58.406Z,92.18
2022-10-18T06:40:26.706Z,91.91
2022-10-18T06:43:21.642Z,91.98
2022-10-18T06:45:51.660Z,92.44
2022-10-18T06:48:21.193Z,91.96
2022-10-18T06:51:15.404Z,91.73
2022-10-18T06:53:48.567Z,91.86
2022-10-18T06:56:27.218Z,91.84
2022-10-18T06:58:55.499Z,91.63
2022-10-18T07:01:23.747Z,91.95
2022-10-18T07:03:53.938Z,91.99
2022-10-18T07:06:23.714Z,92.23
2022-10-18T07:08:55.351Z,91.93
2022-10-18T07:11:25.997Z,91.94
2022-10-18T07:14:02.425Z,91.96
2022-10-18T07:16:32.222Z,92.00
2022-10-18T07:19:00.625Z,92.07
2022-10-18T07:21:28.936Z,91.99
2022-10-18T07:23:57.517Z,92.02
2022-10-18T07:26:29.415Z,91.91
2022-10-18T07:29:09.892Z,91.62
2022-10-18T07:31:39.281Z,92.07
2022-10-18T07:34:09.252Z,91.79
2022-10-18T07:36:37.662Z,91.77
2022-10-18T07:39:06.552Z,91.91
2022-10-18T07:41:35.107Z,91.53
2022-10-18T07:44:04.393Z,91.60
2022-10-18T07:46:32.685Z,91.79
2022-10-18T07:49:01.117Z,91.77
2022-10-18T07:51:31.080Z,91.91
2022-10-18T07:54:00.035Z,92.02
2022-10-18T07:56:28.428Z,92.13
2022-10-18T07:58:57.249Z,91.93
2022-10-18T08:01:25.741Z,92.22
2022-10-18T08:03:54.173Z,92.28
2022-10-18T08:06:23.510Z,92.09
2022-10-18T08:08:52.444Z,91.72
2022-10-18T08:11:23.584Z,91.86
2022-10-18T08:13:53.252Z,92.27
2022-10-18T08:16:27.451Z,92.44
2022-10-18T08:18:59.139Z,92.38
2022-10-18T08:21:27.426Z,92.25
2022-10-18T08:23:55.639Z,92.54
2022-10-18T08:26:24.077Z,92.54
2022-10-18T08:29:10.194Z,92.49
2022-10-18T08:31:40.459Z,92.68
2022-10-18T08:34:08.598Z,92.53
2022-10-18T08:36:37.641Z,92.88
2022-10-18T08:39:05.796Z,92.58
2022-10-18T08:41:48.914Z,92.64
2022-10-18T08:44:23.333Z,92.71
2022-10-18T08:47:05.024Z,92.62
2022-10-18T08:49:47.029Z,92.51
2022-10-18T08:52:21.502Z,92.49
2022-10-18T08:55:02.163Z,92.37
2022-10-18T09:06:38.870Z,92.25
2022-10-18T09:09:20.642Z,92.02
2022-10-18T09:11:51.617Z,91.91
2022-10-18T09:14:50.063Z,92.05
2022-10-18T09:17:21.534Z,91.76
2022-10-18T09:20:20.123Z,91.90
2022-10-18T09:23:20.257Z,91.55
2022-10-18T09:26:02.300Z,91.51
2022-10-18T09:28:45.710Z,91.24
2022-10-18T09:31:58.437Z,91.06
2022-10-18T09:34:34.953Z,91.57
2022-10-18T09:37:04.590Z,91.67
2022-10-18T09:39:38.037Z,91.47
2022-10-18T09:42:12.958Z,91.12
2022-10-18T09:44:56.278Z,90.91
2022-10-18T09:47:39.966Z,90.67
2022-10-18T09:50:32.538Z,90.43
2022-10-18T09:53:16.053Z,90.18
2022-10-18T09:55:59.266Z,90.22
2022-10-18T09:58:41.569Z,90.25
2022-10-18T10:01:13.246Z,90.21
2022-10-18T10:03:42.651Z,89.94
2022-10-18T10:06:15.341Z,89.27
2022-10-18T10:08:48.781Z,88.86
2022-10-18T10:11:30.713Z,88.53
2022-10-18T10:14:09.488Z,88.32
2022-10-18T10:17:07.303Z,88.53
2022-10-18T10:19:57.061Z,88.22
2022-10-18T10:22:29.457Z,88.27
2022-10-18T10:24:57.750Z,88.05
2022-10-18T10:27:43.626Z,87.61
2022-10-18T10:30:27.182Z,87.45
2022-10-18T10:32:56.646Z,87.28
2022-10-18T10:36:00.397Z,86.82
2022-10-18T10:38:30.942Z,86.84
2022-10-18T10:41:00.078Z,86.46
2022-10-18T10:43:39.396Z,86.14
2022-10-18T10:46:08.178Z,85.66
2022-10-18T10:49:27.530Z,85.46
2022-10-18T10:52:02.446Z,85.27
2022-10-18T10:54:50.355Z,84.97
2022-10-18T10:57:24.177Z,84.38
2022-10-18T10:59:55.439Z,84.09
2022-10-18T11:02:32.474Z,84.15
2022-10-18T11:05:23.791Z,83.45
2022-10-18T11:07:56.839Z,83.75
2022-10-18T11:10:31.281Z,83.34
2022-10-18T11:13:08.291Z,83.39
2022-10-18T11:15:43.769Z,83.46
2022-10-18T11:18:34.789Z,83.41
2022-10-18T11:21:21.797Z,83.24
2022-10-18T11:23:50.281Z,82.80
2022-10-18T11:26:24.459Z,82.71
2022-10-18T11:29:02.139Z,82.60
2022-10-18T11:31:41.886Z,82.57
2022-10-18T11:34:43.724Z,82.54
2022-10-18T11:37:44.916Z,82.57
2022-10-18T11:40:57.949Z,82.51
2022-10-18T11:44:01.830Z,82.83
2022-10-18T11:46:47.026Z,83.19
2022-10-18T11:49:32.535Z,83.25
2022-10-18T11:52:18.323Z,83.22
2022-10-18T11:55:13.920Z,83.17
2022-10-18T11:57:49.568Z,83.20
2022-10-18T12:00:32.788Z,83.14
2022-10-18T12:03:12.151Z,83.10
2022-10-18T12:05:43.640Z,83.07
2022-10-18T12:08:16.679Z,82.86
2022-10-18T12:11:06.630Z,82.68
2022-10-18T12:13:43.416Z,82.48
2022-10-18T12:16:13.343Z,82.34
2022-10-18T12:19:14.180Z,82.35
2022-10-18T12:21:43.392Z,82.23
2022-10-18T12:24:20.517Z,81.94
2022-10-18T12:26:52.011Z,81.96
2022-10-18T12:29:35.937Z,81.83
2022-10-18T12:32:13.242Z,81.82
2022-10-18T12:34:46.383Z,81.98
2022-10-18T12:37:39.286Z,81.62
2022-10-18T12:40:20.470Z,81.56
2022-10-18T12:42:52.849Z,81.69
2022-10-18T12:45:48.813Z,81.47
2022-10-18T12:48:33.637Z,81.58
2022-10-18T12:51:15.153Z,81.59
2022-10-18T12:53:46.762Z,81.55
2022-10-18T12:56:30.191Z,81.36
2022-10-18T12:59:16.592Z,81.24
2022-10-18T13:01:51.223Z,80.80
2022-10-18T13:04:32.643Z,80.82
2022-10-18T13:07:32.100Z,80.82
2022-10-18T13:10:13.023Z,80.73
2022-10-18T13:12:44.237Z,80.67
2022-10-18T13:15:44.631Z,80.34
2022-10-18T13:18:26.686Z,78.18
2022-10-18T13:21:17.534Z,78.19
2022-10-18T13:24:24.418Z,78.32
2022-10-18T13:27:04.063Z,78.13
2022-10-18T13:30:27.781Z,77.95
2022-10-18T13:32:59.089Z,77.78
2022-10-18T13:35:55.839Z,77.67
2022-10-18T13:38:56.055Z,78.24
2022-10-18T13:41:29.164Z,77.83
2022-10-18T13:44:28.965Z,78.31
2022-10-18T13:46:57.228Z,78.24
2022-10-18T13:49:38.915Z,78.27
2022-10-18T13:52:22.882Z,78.37
2022-10-18T13:55:17.086Z,78.17
2022-10-18T13:58:22.201Z,78.46
2022-10-18T14:01:18.669Z,78.39
2022-10-18T14:04:01.245Z,78.56
2022-10-18T14:06:37.455Z,78.41
2022-10-18T14:09:39.916Z,78.83
2022-10-18T14:12:31.136Z,78.77
2022-10-18T14:15:14.941Z,79.20
2022-10-18T14:18:05.257Z,79.00
2022-10-18T14:20:55.218Z,79.03
2022-10-18T14:23:35.328Z,79.19
2022-10-18T14:26:19.897Z,79.30
2022-10-18T14:29:16.160Z,79.62
2022-10-18T14:31:55.166Z,79.90
2022-10-18T14:34:24.005Z,79.89
2022-10-18T14:36:52.354Z,80.09
2022-10-18T14:39:29.187Z,79.67
2022-10-18T14:41:58.585Z,79.96
2022-10-18T14:44:30.213Z,79.94
2022-10-18T14:47:04.513Z,79.87
2022-10-18T14:49:32.878Z,80.02
2022-10-18T14:52:01.584Z,79.93
2022-10-18T14:54:36.605Z,79.88
2022-10-18T14:57:07.169Z,80.11
2022-10-18T14:59:58.705Z,79.88
2022-10-18T15:02:30.803Z,80.09
2022-10-18T15:05:06.981Z,80.52
2022-10-18T15:07:35.990Z,80.38
2022-10-18T15:10:05.925Z,80.31
2022-10-18T15:12:37.128Z,80.53
2022-10-18T15:15:19.896Z,80.63
2022-10-18T15:17:49.622Z,80.57
2022-10-18T15:20:28.757Z,80.37
2022-10-18T15:23:24.739Z,80.67
2022-10-18T15:26:12.837Z,80.97
2022-10-18T15:28:51.503Z,81.03
2022-10-18T15:31:29.442Z,81.09
2022-10-18T15:34:10.734Z,81.05
2022-10-18T15:36:39.458Z,81.06
2022-10-18T15:39:24.471Z,81.40
2022-10-18T15:41:54.194Z,81.57
2022-10-18T15:44:34.858Z,81.50
2022-10-18T15:47:29.745Z,81.64
2022-10-18T15:49:59.142Z,81.48
2022-10-18T15:52:38.094Z,81.21
2022-10-18T15:55:33.215Z,81.56
2022-10-18T15:58:12.279Z,81.97
2022-10-18T16:00:42.224Z,82.13
2022-10-18T16:03:10.714Z,82.18
2022-10-18T16:05:39.502Z,82.74
2022-10-18T16:08:18.843Z,82.66
2022-10-18T16:10:47.008Z,82.93
2022-10-18T16:13:15.081Z,82.51
2022-10-18T16:15:43.278Z,82.52
2022-10-18T16:18:17.808Z,83.09
2022-10-18T16:20:47.890Z,82.66
2022-10-18T16:23:19.136Z,82.91
2022-10-18T16:25:47.833Z,83.09
2022-10-18T16:28:19.364Z,83.14
2022-10-18T16:31:00.152Z,82.77
2022-10-18T16:33:28.435Z,83.14
2022-10-18T16:35:57.626Z,83.01
2022-10-18T16:38:32.611Z,83.28
2022-10-18T16:41:07.364Z,83.04
2022-10-18T16:43:36.022Z,83.81
2022-10-18T16:46:04.923Z,84.16
2022-10-18T16:48:33.726Z,84.39
2022-10-18T16:51:02.318Z,84.21
2022-10-18T16:53:30.624Z,84.22
2022-10-18T16:56:01.175Z,84.50
2022-10-18T16:58:31.553Z,84.42
2022-10-18T17:01:01.892Z,84.27
2022-10-18T17:03:32.338Z,84.45
2022-10-18T17:06:00.499Z,84.25
2022-10-18T17:08:33.618Z,84.09
2022-10-18T17:11:02.318Z,84.04
2022-10-18T17:13:30.711Z,84.03
2022-10-18T17:16:00.680Z,84.07
2022-10-18T17:18:30.739Z,83.80
2022-10-18T17:21:03.321Z,83.97
2022-10-18T17:23:31.790Z,83.65
2022-10-18T17:26:07.147Z,83.88
2022-10-18T17:28:43.606Z,83.86
2022-10-18T17:31:14.997Z,83.96
2022-10-18T17:33:43.295Z,83.62
2022-10-18T17:36:12.682Z,83.95
2022-10-18T17:38:41.123Z,83.78
2022-10-18T17:41:11.302Z,83.66
2022-10-18T17:46:14.520Z,83.35
2022-10-18T17:48:43.065Z,83.23
2022-10-18T17:51:14.322Z,83.01
2022-10-18T17:53:43.264Z,82.84
2022-10-18T17:56:12.113Z,82.78
2022-10-18T17:58:43.265Z,82.56
2022-10-18T18:01:20.297Z,82.49
2022-10-18T18:03:48.495Z,82.34
2022-10-18T18:06:20.772Z,82.33
2022-10-18T18:08:49.975Z,81.98
2022-10-18T18:11:18.292Z,81.81
2022-10-18T18:13:46.483Z,81.65
2022-10-18T18:16:18.972Z,81.36
2022-10-18T18:18:49.807Z,80.62
2022-10-18T18:21:19.034Z,80.28
2022-10-18T18:23:48.715Z,80.35
2022-10-18T18:26:19.020Z,80.20
2022-10-18T18:28:47.588Z,79.81
2022-10-18T18:31:18.900Z,79.64
2022-10-18T18:33:47.211Z,79.87
2022-10-18T18:36:15.403Z,79.88
2022-10-18T18:38:44.071Z,79.90
2022-10-18T18:41:12.751Z,79.97
2022-10-18T18:43:46.952Z,80.06
2022-10-18T18:46:15.621Z,80.16
2022-10-18T18:48:43.912Z,80.28
2022-10-18T18:51:15.261Z,80.36
2022-10-18T18:53:45.225Z,80.46
2022-10-18T18:58:54.028Z,80.64
2022-10-18T19:01:25.296Z,80.91
2022-10-18T19:03:55.915Z,80.93
2022-10-18T19:06:25.531Z,81.19
2022-10-18T19:09:00.337Z,81.30
2022-10-18T19:11:33.512Z,81.46
2022-10-18T19:14:03.650Z,81.34
2022-10-18T19:16:34.136Z,81.52
2022-10-18T19:19:06.354Z,81.63
2022-10-18T19:21:37.579Z,81.65
2022-10-18T19:24:06.843Z,81.88
2022-10-18T19:26:45.730Z,81.83
2022-10-18T19:29:21.405Z,81.84
2022-10-18T19:31:52.064Z,82.15
2022-10-18T19:34:21.243Z,82.34
2022-10-18T19:36:51.188Z,82.16
2022-10-18T19:39:21.867Z,82.29
2022-10-18T19:41:53.051Z,82.37
2022-10-18T19:44:23.370Z,82.62
2022-10-18T19:46:51.974Z,82.60
2022-10-18T19:49:20.510Z,82.76
2022-10-18T19:51:48.931Z,83.01
2022-10-18T19:54:17.168Z,82.90
2022-10-18T19:56:45.604Z,82.74
2022-10-18T19:59:16.306Z,82.69
2022-10-18T20:01:45.475Z,82.74
2022-10-18T20:04:14.743Z,83.00
2022-10-18T20:06:43.183Z,83.17
2022-10-18T20:09:16.151Z,83.02
2022-10-18T20:11:48.303Z,83.05
2022-10-18T20:14:16.694Z,83.10
2022-10-18T20:16:44.943Z,83.12
2022-10-18T20:19:13.218Z,83.24
2022-10-18T20:21:41.479Z,83.26
2022-10-18T20:24:11.694Z,83.32
2022-10-18T20:26:40.152Z,83.39
2022-10-18T20:29:08.600Z,83.42
2022-10-18T20:31:39.201Z,83.31
2022-10-18T20:34:11.987Z,83.31
2022-10-18T20:36:40.655Z,83.61
2022-10-18T20:39:09.842Z,83.49
2022-10-18T20:41:41.500Z,83.40
2022-10-18T20:44:14.345Z,83.80
2022-10-18T20:46:44.311Z,83.79
2022-10-18T20:49:16.514Z,83.96
2022-10-18T20:51:45.946Z,83.97
2022-10-18T20:54:14.615Z,84.14
2022-10-18T20:56:43.033Z,84.14
2022-10-18T20:59:11.721Z,84.18
2022-10-18T21:01:40.168Z,84.17
2022-10-18T21:04:10.286Z,84.21
2022-10-18T21:06:43.827Z,84.33
2022-10-18T21:09:13.523Z,84.31
2022-10-18T21:11:45.080Z,84.38
2022-10-18T21:14:19.279Z,84.39
2022-10-18T21:16:48.382Z,84.42
2022-10-18T21:19:23.735Z,84.37
2022-10-18T21:21:54.888Z,84.46
2022-10-18T21:24:25.558Z,84.49
2022-10-18T21:26:54.930Z,84.59
2022-10-18T21:29:27.130Z,84.59
2022-10-18T21:31:59.449Z,84.45
2022-10-18T21:34:27.807Z,84.73
2022-10-18T21:36:56.803Z,84.77
2022-10-18T21:39:25.174Z,84.64
2022-10-18T21:41:54.299Z,84.75
2022-10-18T21:44:22.548Z,84.87
2022-10-18T21:46:50.941Z,84.80
2022-10-18T21:49:19.269Z,84.70
2022-10-18T21:51:47.574Z,84.88
2022-10-18T21:54:16.818Z,84.85
2022-10-18T21:56:45.457Z,84.66
2022-10-18T21:59:14.219Z,84.94
2022-10-18T22:01:44.340Z,84.70
2022-10-18T22:04:22.318Z,84.83
2022-10-18T22:06:51.031Z,84.87
2022-10-18T22:09:21.500Z,84.99
2022-10-18T22:11:53.483Z,84.92
2022-10-18T22:14:22.278Z,84.78
2022-10-18T22:16:51.321Z,84.97
2022-10-18T22:19:19.820Z,85.16
2022-10-18T22:21:48.009Z,84.97
2022-10-18T22:24:16.228Z,85.10
2022-10-18T22:26:45.784Z,85.22
2022-10-18T22:29:17.096Z,85.25
2022-10-18T22:31:52.732Z,85.23
2022-10-18T22:34:29.281Z,85.28
2022-10-18T22:36:57.800Z,85.39
2022-10-18T22:39:27.077Z,85.45
2022-10-18T22:41:56.773Z,85.73
2022-10-18T22:44:25.147Z,85.74
2022-10-18T22:46:53.373Z,85.86
2022-10-18T22:49:21.764Z,85.93
2022-10-18T22:51:50.296Z,86.02
2022-10-18T22:54:18.653Z,85.93
2022-10-18T22:56:46.932Z,86.25
2022-10-18T22:59:15.187Z,86.12
2022-10-18T23:01:43.520Z,86.44
2022-10-18T23:04:11.728Z,86.43
2022-10-18T23:06:40.272Z,86.47
2022-10-18T23:09:11.103Z,86.54
2022-10-18T23:11:39.434Z,86.62
2022-10-18T23:14:07.715Z,86.65
2022-10-18T23:16:36.056Z,86.78
2022-10-18T23:19:04.387Z,86.86
2022-10-18T23:21:33.866Z,86.96
2022-10-18T23:24:02.174Z,86.85
2022-10-18T23:26:30.495Z,86.93
2022-10-18T23:28:58.888Z,86.92
2022-10-18T23:31:30.189Z,87.05
2022-10-18T23:34:02.075Z,86.92
2022-10-18T23:36:32.140Z,86.85
2022-10-18T23:39:00.566Z,86.92
2022-10-18T23:41:28.972Z,86.92
2022-10-18T23:43:57.239Z,86.98
2022-10-18T23:46:25.653Z,87.13
2022-10-18T23:48:53.868Z,87.02
2022-10-18T23:51:22.052Z,87.36
2022-10-18T23:53:50.317Z,87.39
2022-10-18T23:56:18.585Z,87.42
2022-10-18T23:58:46.873Z,87.33
